Time;durP1;ratioP1;P1;durP2;ratioP2;P2;SDS_P1;SDS_P2;PMS_P1;PMS_P2;Temp;Humidity;BMP_temperature;BMP_pressure;BME280_temperature;BME280_humidity;BME280_pressure;Samples;Min_cycle;Max_cycle;Signal;HPM_P1;HPM_P2
2021/03/25 00:00:23;;;;;;;4.50;2.80;;;;;;;;;;5035313;28;20454;-71
2021/03/25 00:02:50;;;;;;;4.90;2.83;;;;;;;;;;5034252;28;20442;-71
2021/03/25 00:05:16;;;;;;;3.47;2.70;;;;;;;;;;5034132;28;20416;-71
2021/03/25 00:07:42;;;;;;;4.83;2.90;;;;;;;;;;5030886;28;20439;-71
2021/03/25 00:10:10;;;;;;;2.90;2.20;;;;;;;;;;5036343;28;20436;-71
2021/03/25 00:12:36;;;;;;;4.97;3.07;;;;;;;;;;5034146;28;20556;-72
2021/03/25 00:15:03;;;;;;;5.90;2.97;;;;;;;;;;5035002;28;20663;-72
2021/03/25 00:17:29;;;;;;;4.30;2.43;;;;;;;;;;5033977;28;20430;-72
2021/03/25 00:19:55;;;;;;;6.90;3.27;;;;;;;;;;5034741;28;20500;-71
2021/03/25 00:22:21;;;;;;;6.20;2.60;;;;;;;;;;5033882;28;20412;-72
2021/03/25 00:24:47;;;;;;;4.73;2.80;;;;;;;;;;5035967;28;20438;-72
2021/03/25 00:27:14;;;;;;;4.73;2.77;;;;;;;;;;5036211;28;20415;-72
2021/03/25 00:29:40;;;;;;;8.60;3.13;;;;;;;;;;5033548;28;20453;-72
2021/03/25 00:32:06;;;;;;;7.33;2.00;;;;;;;;;;5035653;28;20461;-71
2021/03/25 00:34:32;;;;;;;3.90;2.70;;;;;;;;;;5020698;28;20433;-71
2021/03/25 00:36:58;;;;;;;6.10;2.73;;;;;;;;;;5014827;28;20777;-71
2021/03/25 00:39:24;;;;;;;4.87;2.73;;;;;;;;;;5029634;28;20451;-71
2021/03/25 00:41:50;;;;;;;3.40;2.10;;;;;;;;;;5033964;28;20411;-72
2021/03/25 00:44:16;;;;;;;5.90;2.80;;;;;;;;;;5035219;28;20427;-71
2021/03/25 00:46:43;;;;;;;3.73;2.07;;;;;;;;;;5036396;28;20410;-71
2021/03/25 00:49:09;;;;;;;9.17;2.70;;;;;;;;;;5030398;28;20458;-71
2021/03/25 00:51:35;;;;;;;4.90;2.63;;;;;;;;;;5016129;28;20448;-71
2021/03/25 00:54:02;;;;;;;4.87;3.00;;;;;;;;;;5025574;28;20527;-71
2021/03/25 00:56:28;;;;;;;3.00;2.37;;;;;;;;;;5033581;28;20432;-71
2021/03/25 00:58:54;;;;;;;5.30;2.67;;;;;;;;;;5026786;28;20461;-71
2021/03/25 01:01:20;;;;;;;4.10;2.23;;;;;;;;;;5016202;28;20784;-71
2021/03/25 01:03:47;;;;;;;4.43;2.63;;;;;;;;;;5021980;28;20423;-71
2021/03/25 01:06:13;;;;;;;3.90;2.90;;;;;;;;;;5035660;28;20438;-71
2021/03/25 01:08:39;;;;;;;3.23;2.50;;;;;;;;;;5034550;28;20447;-71
2021/03/25 01:11:05;;;;;;;3.00;2.30;;;;;;;;;;5036056;28;20908;-71
2021/03/25 01:13:32;;;;;;;4.30;2.80;;;;;;;;;;5034800;28;20473;-71
2021/03/25 01:15:59;;;;;;;3.13;2.30;;;;;;;;;;5033189;28;20436;-71
2021/03/25 01:18:26;;;;;;;5.43;2.03;;;;;;;;;;5030497;28;21247;-71
2021/03/25 01:20:52;;;;;;;3.30;2.10;;;;;;;;;;5014330;28;20398;-71
2021/03/25 01:23:19;;;;;;;3.10;2.27;;;;;;;;;;5016162;28;20428;-71
2021/03/25 01:25:45;;;;;;;4.37;2.00;;;;;;;;;;5033981;28;20402;-71
2021/03/25 01:28:12;;;;;;;3.37;1.93;;;;;;;;;;5031855;28;20512;-72
2021/03/25 01:30:38;;;;;;;5.80;2.43;;;;;;;;;;5034224;28;20408;-71
2021/03/25 01:33:06;;;;;;;3.90;2.00;;;;;;;;;;5033060;28;20456;-72
2021/03/25 01:35:33;;;;;;;2.90;2.00;;;;;;;;;;5014109;28;20475;-71
2021/03/25 01:37:59;;;;;;;4.20;2.00;;;;;;;;;;5012851;28;20492;-71
2021/03/25 01:40:28;;;;;;;3.90;2.23;;;;;;;;;;5032765;28;20875;-71
2021/03/25 01:43:13;;;;;;;5.33;2.50;;;;;;;;;;5033733;28;20400;-71
2021/03/25 01:45:57;;;;;;;2.87;1.80;;;;;;;;;;5032349;28;20416;-72
2021/03/25 01:48:28;;;;;;;2.90;2.03;;;;;;;;;;5032586;28;20766;-71
2021/03/25 01:50:58;;;;;;;2.73;2.10;;;;;;;;;;5034014;28;20491;-71
2021/03/25 01:53:34;;;;;;;4.00;1.97;;;;;;;;;;5032668;28;20454;-71
2021/03/25 01:56:19;;;;;;;2.97;2.17;;;;;;;;;;5033788;28;20724;-70
2021/03/25 01:58:51;;;;;;;3.07;1.80;;;;;;;;;;5031968;28;20821;-71
2021/03/25 02:01:26;;;;;;;4.37;2.03;;;;;;;;;;5031172;28;20416;-72
2021/03/25 02:03:52;;;;;;;2.70;1.83;;;;;;;;;;5032545;28;20854;-72
2021/03/25 02:06:18;;;;;;;3.47;2.13;;;;;;;;;;5033222;28;20407;-71
2021/03/25 02:08:44;;;;;;;3.20;1.53;;;;;;;;;;5028863;28;20449;-70
2021/03/25 02:11:29;;;;;;;3.20;1.93;;;;;;;;;;5012154;28;20421;-70
2021/03/25 02:14:21;;;;;;;2.37;1.70;;;;;;;;;;5013396;28;20499;-71
2021/03/25 02:17:03;;;;;;;5.20;1.70;;;;;;;;;;5011947;28;20419;-71
2021/03/25 02:19:33;;;;;;;2.13;1.40;;;;;;;;;;5030890;28;20461;-71
2021/03/25 02:22:02;;;;;;;2.77;1.53;;;;;;;;;;5033330;28;20411;-71
2021/03/25 02:24:28;;;;;;;2.47;1.53;;;;;;;;;;5032928;28;20426;-71
2021/03/25 02:27:23;;;;;;;4.33;1.60;;;;;;;;;;5033268;28;20825;-70
2021/03/25 02:29:49;;;;;;;2.57;1.80;;;;;;;;;;4962879;28;20466;-71
2021/03/25 02:32:19;;;;;;;3.87;1.73;;;;;;;;;;5033087;28;20440;-71
2021/03/25 02:34:47;;;;;;;2.17;1.67;;;;;;;;;;5032179;28;20433;-71
2021/03/25 02:37:24;;;;;;;2.43;1.57;;;;;;;;;;5033223;28;20461;-71
2021/03/25 02:40:05;;;;;;;3.70;1.80;;;;;;;;;;5024210;28;20534;-71
2021/03/25 02:42:51;;;;;;;3.30;2.10;;;;;;;;;;5011907;28;20473;-71
2021/03/25 02:45:23;;;;;;;5.83;2.10;;;;;;;;;;5023077;28;20635;-71
2021/03/25 02:47:50;;;;;;;2.20;1.60;;;;;;;;;;5032292;28;21014;-70
2021/03/25 02:50:31;;;;;;;4.30;2.23;;;;;;;;;;5031721;28;20941;-70
2021/03/25 02:53:00;;;;;;;3.40;1.83;;;;;;;;;;5032757;28;20462;-70
2021/03/25 02:55:27;;;;;;;4.70;1.90;;;;;;;;;;5031776;28;20997;-71
2021/03/25 02:57:59;;;;;;;3.07;1.80;;;;;;;;;;5032833;28;20411;-71
2021/03/25 03:00:28;;;;;;;2.50;1.27;;;;;;;;;;5030893;28;20940;-70
2021/03/25 03:03:01;;;;;;;2.30;1.40;;;;;;;;;;5021652;28;20437;-71
2021/03/25 03:05:29;;;;;;;3.20;1.63;;;;;;;;;;5024141;28;20475;-71
2021/03/25 03:08:17;;;;;;;5.50;2.20;;;;;;;;;;5031950;28;20413;-71
2021/03/25 03:10:51;;;;;;;2.03;1.53;;;;;;;;;;5019142;28;20436;-71
2021/03/25 03:13:18;;;;;;;2.37;1.67;;;;;;;;;;5011667;28;20447;-71
2021/03/25 03:15:49;;;;;;;5.70;1.70;;;;;;;;;;5025936;28;20446;-71
2021/03/25 03:18:21;;;;;;;3.23;2.17;;;;;;;;;;5032417;28;20401;-71
2021/03/25 03:20:48;;;;;;;4.97;1.80;;;;;;;;;;5031057;28;20865;-71
2021/03/25 03:23:14;;;;;;;3.83;1.90;;;;;;;;;;5032602;28;20890;-71
2021/03/25 03:25:40;;;;;;;3.77;1.90;;;;;;;;;;5018832;28;20518;-71
2021/03/25 03:28:15;;;;;;;3.70;2.30;;;;;;;;;;5015063;28;20419;-71
2021/03/25 03:30:51;;;;;;;6.60;2.17;;;;;;;;;;5028389;28;20765;-71
2021/03/25 03:33:25;;;;;;;3.30;1.60;;;;;;;;;;5035918;28;20447;-71
2021/03/25 03:36:11;;;;;;;3.43;2.23;;;;;;;;;;5035367;28;20454;-71
2021/03/25 03:38:49;;;;;;;9.10;2.67;;;;;;;;;;5033254;28;20932;-71
2021/03/25 03:41:17;;;;;;;3.70;2.10;;;;;;;;;;5030524;28;20432;-71
2021/03/25 03:43:44;;;;;;;5.30;2.20;;;;;;;;;;5016139;28;20414;-71
2021/03/25 03:46:14;;;;;;;5.10;1.77;;;;;;;;;;5031326;28;20916;-71
2021/03/25 03:48:42;;;;;;;3.80;2.20;;;;;;;;;;5036041;28;20421;-71
2021/03/25 03:51:10;;;;;;;3.90;1.77;;;;;;;;;;5020687;28;20443;-71
2021/03/25 03:53:37;;;;;;;4.17;1.80;;;;;;;;;;5018119;28;20851;-71
2021/03/25 03:56:11;;;;;;;3.13;1.70;;;;;;;;;;5020534;28;20429;-71
2021/03/25 03:58:42;;;;;;;3.50;2.13;;;;;;;;;;5015937;28;20476;-71
2021/03/25 04:01:13;;;;;;;4.53;2.07;;;;;;;;;;5029904;28;20870;-71
2021/03/25 04:03:44;;;;;;;3.80;2.10;;;;;;;;;;5036037;28;20422;-71
2021/03/25 04:06:12;;;;;;;2.87;1.70;;;;;;;;;;5034948;28;20455;-71
2021/03/25 04:08:45;;;;;;;4.83;1.60;;;;;;;;;;5035712;28;20776;-71
2021/03/25 04:11:15;;;;;;;5.27;2.30;;;;;;;;;;5019385;28;20539;-71
2021/03/25 04:13:47;;;;;;;4.13;2.00;;;;;;;;;;5014324;28;20405;-71
2021/03/25 04:16:14;;;;;;;2.83;2.00;;;;;;;;;;5026025;28;20514;-70
2021/03/25 04:18:40;;;;;;;5.67;1.70;;;;;;;;;;5035336;28;20822;-71
2021/03/25 04:21:29;;;;;;;3.67;2.20;;;;;;;;;;5034231;28;20433;-71
2021/03/25 04:23:56;;;;;;;2.60;2.03;;;;;;;;;;5027305;28;20418;-71
2021/03/25 04:26:45;;;;;;;5.40;2.43;;;;;;;;;;5033967;28;20925;-70
2021/03/25 04:29:17;;;;;;;5.50;2.60;;;;;;;;;;4997724;28;20430;-72
2021/03/25 04:31:43;;;;;;;6.60;3.17;;;;;;;;;;5033792;28;20459;-72
2021/03/25 04:34:10;;;;;;;4.43;2.50;;;;;;;;;;5035025;28;20406;-71
2021/03/25 04:36:38;;;;;;;8.30;2.40;;;;;;;;;;5022172;28;20432;-72
2021/03/25 04:39:06;;;;;;;4.77;2.03;;;;;;;;;;5014058;28;20430;-71
2021/03/25 04:41:34;;;;;;;5.43;2.43;;;;;;;;;;5025166;28;20427;-72
2021/03/25 04:44:02;;;;;;;5.40;2.40;;;;;;;;;;5033722;28;20922;-71
2021/03/25 04:46:28;;;;;;;13.43;2.67;;;;;;;;;;5033776;28;20570;-71
2021/03/25 04:48:57;;;;;;;4.87;2.30;;;;;;;;;;5034613;28;20428;-71
2021/03/25 04:51:25;;;;;;;6.83;2.30;;;;;;;;;;5033766;28;20451;-71
2021/03/25 04:53:52;;;;;;;5.40;2.20;;;;;;;;;;5034658;28;20406;-72
2021/03/25 04:56:20;;;;;;;4.37;2.03;;;;;;;;;;5034116;28;20851;-71
2021/03/25 04:58:53;;;;;;;4.33;2.10;;;;;;;;;;5034518;28;20427;-71
2021/03/25 05:01:20;;;;;;;3.97;2.43;;;;;;;;;;5033581;28;20427;-72
2021/03/25 05:03:49;;;;;;;3.80;1.80;;;;;;;;;;5034521;28;20403;-72
2021/03/25 05:06:20;;;;;;;2.80;2.07;;;;;;;;;;5031409;28;20436;-72
2021/03/25 05:08:48;;;;;;;4.17;2.50;;;;;;;;;;5022797;28;20447;-71
2021/03/25 05:11:15;;;;;;;4.30;2.37;;;;;;;;;;5013247;28;20429;-71
2021/03/25 05:13:43;;;;;;;3.73;2.30;;;;;;;;;;5014560;28;20468;-71
2021/03/25 05:16:25;;;;;;;8.40;2.40;;;;;;;;;;5025264;28;20922;-71
2021/03/25 05:19:03;;;;;;;3.23;2.03;;;;;;;;;;5033290;28;20451;-71
2021/03/25 05:21:44;;;;;;;5.00;2.50;;;;;;;;;;5034749;28;20462;-72
2021/03/25 05:24:10;;;;;;;3.93;2.40;;;;;;;;;;5018381;28;20456;-71
2021/03/25 05:26:42;;;;;;;6.57;2.60;;;;;;;;;;5014684;28;20445;-71
2021/03/25 05:29:09;;;;;;;4.73;2.60;;;;;;;;;;5014555;28;20774;-71
2021/03/25 05:31:36;;;;;;;6.20;2.97;;;;;;;;;;5014478;28;20459;-71
2021/03/25 05:34:06;;;;;;;6.07;2.13;;;;;;;;;;5027822;28;20431;-71
2021/03/25 05:36:33;;;;;;;5.00;2.60;;;;;;;;;;5033996;28;20400;-71
2021/03/25 05:38:59;;;;;;;4.47;2.57;;;;;;;;;;5031746;28;20441;-71
2021/03/25 05:41:25;;;;;;;6.40;2.63;;;;;;;;;;5034140;28;20486;-71
2021/03/25 05:43:57;;;;;;;3.10;1.70;;;;;;;;;;5032928;28;20429;-71
2021/03/25 05:46:30;;;;;;;3.37;2.17;;;;;;;;;;5032582;28;20717;-71
2021/03/25 05:49:14;;;;;;;3.30;2.03;;;;;;;;;;5028927;28;20447;-71
2021/03/25 05:51:47;;;;;;;4.17;2.03;;;;;;;;;;5013713;28;20966;-71
2021/03/25 05:54:29;;;;;;;3.80;2.60;;;;;;;;;;5028158;28;20433;-71
2021/03/25 05:56:55;;;;;;;4.00;2.90;;;;;;;;;;5033829;28;20472;-70
2021/03/25 05:59:23;;;;;;;8.97;2.50;;;;;;;;;;5017388;28;20472;-72
2021/03/25 06:02:01;;;;;;;5.23;2.80;;;;;;;;;;5013698;28;20456;-71
2021/03/25 06:04:29;;;;;;;10.00;3.27;;;;;;;;;;5013614;28;20941;-71
2021/03/25 06:07:14;;;;;;;3.40;2.13;;;;;;;;;;5014566;28;20400;-71
2021/03/25 06:09:43;;;;;;;4.97;2.70;;;;;;;;;;5013181;28;20474;-71
2021/03/25 06:12:26;;;;;;;4.50;2.70;;;;;;;;;;5013382;28;20444;-71
2021/03/25 06:15:18;;;;;;;6.47;2.63;;;;;;;;;;5031880;28;20917;-71
2021/03/25 06:17:44;;;;;;;4.37;2.40;;;;;;;;;;5009472;28;20823;-71
2021/03/25 06:20:10;;;;;;;6.60;2.70;;;;;;;;;;5032815;28;20435;-71
2021/03/25 06:22:55;;;;;;;12.50;2.57;;;;;;;;;;5031840;28;20408;-71
2021/03/25 06:25:47;;;;;;;3.37;1.77;;;;;;;;;;5013459;28;20456;-71
2021/03/25 06:28:13;;;;;;;5.13;2.67;;;;;;;;;;5015091;28;20428;-71
2021/03/25 06:30:45;;;;;;;3.53;2.20;;;;;;;;;;5032969;28;20437;-71
2021/03/25 06:33:17;;;;;;;6.67;2.60;;;;;;;;;;5032019;28;20493;-71
2021/03/25 06:35:46;;;;;;;6.80;2.83;;;;;;;;;;5033013;28;20401;-71
2021/03/25 06:38:25;;;;;;;10.73;3.37;;;;;;;;;;5030800;28;20532;-72
2021/03/25 06:40:55;;;;;;;10.97;2.83;;;;;;;;;;5032958;28;20399;-72
2021/03/25 06:43:30;;;;;;;4.03;2.27;;;;;;;;;;5030816;28;20814;-70
2021/03/25 06:46:02;;;;;;;3.67;1.80;;;;;;;;;;5033400;28;20419;-72
2021/03/25 06:48:37;;;;;;;6.93;2.13;;;;;;;;;;5032304;28;20451;-72
2021/03/25 06:51:23;;;;;;;7.07;3.47;;;;;;;;;;5033464;28;20921;-72
2021/03/25 06:54:09;;;;;;;9.87;3.53;;;;;;;;;;5032274;28;20471;-71
2021/03/25 06:56:36;;;;;;;7.43;3.17;;;;;;;;;;5032028;28;20397;-72
2021/03/25 06:59:03;;;;;;;4.63;3.03;;;;;;;;;;5015789;28;20450;-72
2021/03/25 07:01:34;;;;;;;3.07;1.77;;;;;;;;;;5014761;28;20430;-72
2021/03/25 07:04:21;;;;;;;6.53;2.33;;;;;;;;;;5016945;28;20514;-71
2021/03/25 07:06:47;;;;;;;3.30;1.70;;;;;;;;;;5016825;28;20491;-71
2021/03/25 07:09:14;;;;;;;5.77;2.10;;;;;;;;;;5017273;28;20458;-71
2021/03/25 07:11:40;;;;;;;6.40;2.17;;;;;;;;;;5016891;28;20449;-71
2021/03/25 07:14:08;;;;;;;3.50;2.43;;;;;;;;;;5022204;28;20429;-72
2021/03/25 07:16:39;;;;;;;7.87;2.50;;;;;;;;;;5016616;28;20496;-72
2021/03/25 07:19:06;;;;;;;9.00;2.37;;;;;;;;;;5040143;28;20565;-71
2021/03/25 07:21:33;;;;;;;4.00;1.90;;;;;;;;;;5036611;28;20418;-70
2021/03/25 07:24:00;;;;;;;5.27;2.37;;;;;;;;;;5034296;28;20446;-72
2021/03/25 07:26:30;;;;;;;4.80;2.13;;;;;;;;;;5036492;28;20419;-71
2021/03/25 07:29:00;;;;;;;21.00;4.50;;;;;;;;;;5027191;28;20954;-70
2021/03/25 07:31:31;;;;;;;4.93;2.07;;;;;;;;;;5020429;28;20524;-71
2021/03/25 07:33:57;;;;;;;4.63;1.97;;;;;;;;;;5023190;28;20444;-71
2021/03/25 07:36:23;;;;;;;9.37;2.70;;;;;;;;;;5036244;28;20457;-71
2021/03/25 07:38:58;;;;;;;2.60;2.00;;;;;;;;;;5034292;28;20595;-71
2021/03/25 07:41:26;;;;;;;5.53;2.20;;;;;;;;;;5036159;28;20479;-71
2021/03/25 07:44:04;;;;;;;3.30;2.20;;;;;;;;;;5033973;28;20434;-71
2021/03/25 07:46:50;;;;;;;8.20;3.07;;;;;;;;;;5028107;28;20420;-71
2021/03/25 07:49:27;;;;;;;5.17;2.30;;;;;;;;;;5022772;28;20456;-71
2021/03/25 07:51:56;;;;;;;4.40;2.13;;;;;;;;;;5030174;28;20448;-71
2021/03/25 07:54:29;;;;;;;6.40;2.07;;;;;;;;;;5034648;28;20422;-71
2021/03/25 07:56:55;;;;;;;4.67;2.10;;;;;;;;;;5026458;28;20425;-71
2021/03/25 07:59:31;;;;;;;2.70;1.80;;;;;;;;;;5024480;28;20804;-71
2021/03/25 08:01:57;;;;;;;8.80;2.03;;;;;;;;;;5027379;28;21522;-71
2021/03/25 08:04:33;;;;;;;3.20;1.80;;;;;;;;;;5032266;28;20443;-72
2021/03/25 08:07:07;;;;;;;7.80;2.00;;;;;;;;;;5027079;28;20420;-72
2021/03/25 08:09:48;;;;;;;2.90;1.80;;;;;;;;;;5025037;28;20452;-72
2021/03/25 08:12:28;;;;;;;4.60;2.27;;;;;;;;;;5029204;28;20466;-71
2021/03/25 08:15:13;;;;;;;4.17;2.43;;;;;;;;;;5028188;28;20427;-73
2021/03/25 08:18:05;;;;;;;4.97;2.70;;;;;;;;;;5026528;28;20512;-73
2021/03/25 08:20:40;;;;;;;4.33;2.73;;;;;;;;;;5017323;28;20850;-73
2021/03/25 08:23:18;;;;;;;4.50;2.90;;;;;;;;;;5028927;28;20409;-73
2021/03/25 08:25:47;;;;;;;4.90;3.23;;;;;;;;;;5029803;28;20465;-73
2021/03/25 08:28:30;;;;;;;5.50;2.87;;;;;;;;;;5023572;28;20800;-73
2021/03/25 08:31:05;;;;;;;7.40;2.50;;;;;;;;;;5016788;28;20511;-72
2021/03/25 08:33:50;;;;;;;7.27;3.20;;;;;;;;;;5025721;28;20434;-71
2021/03/25 08:36:23;;;;;;;8.20;3.47;;;;;;;;;;5030268;28;20402;-74
2021/03/25 08:38:57;;;;;;;5.77;2.97;;;;;;;;;;5025501;28;20424;-73
2021/03/25 08:41:32;;;;;;;7.53;4.47;;;;;;;;;;5024915;28;20402;-71
2021/03/25 08:44:17;;;;;;;9.57;4.77;;;;;;;;;;5028077;28;20417;-70
2021/03/25 08:46:50;;;;;;;9.60;5.47;;;;;;;;;;5026215;28;20475;-70
2021/03/25 08:49:21;;;;;;;10.67;6.03;;;;;;;;;;5023244;28;20937;-69
2021/03/25 08:51:48;;;;;;;8.38;4.50;;;;;;;;;;5032593;28;20833;-72
2021/03/25 08:54:20;;;;;;;8.90;5.43;;;;;;;;;;5020137;28;20179;-73
2021/03/25 08:56:48;;;;;;;11.83;5.60;;;;;;;;;;5028487;28;20986;-70
2021/03/25 08:59:24;;;;;;;8.90;5.50;;;;;;;;;;5029462;28;20489;-71
2021/03/25 09:02:09;;;;;;;11.17;5.67;;;;;;;;;;5024591;28;20424;-74
2021/03/25 09:04:36;;;;;;;12.00;4.97;;;;;;;;;;5024539;28;20499;-74
2021/03/25 09:07:04;;;;;;;12.47;5.83;;;;;;;;;;5023175;28;20421;-74
2021/03/25 09:09:30;;;;;;;11.70;6.23;;;;;;;;;;5029927;28;21000;-74
2021/03/25 09:11:57;;;;;;;10.13;5.17;;;;;;;;;;5028173;28;20466;-74
2021/03/25 09:14:25;;;;;;;9.80;5.60;;;;;;;;;;5027091;28;20450;-74
2021/03/25 09:16:52;;;;;;;16.17;7.17;;;;;;;;;;5028339;28;20425;-74
2021/03/25 09:19:24;;;;;;;10.27;5.90;;;;;;;;;;5025576;28;20490;-73
2021/03/25 09:21:50;;;;;;;10.13;5.80;;;;;;;;;;5022189;28;20493;-73
2021/03/25 09:24:16;;;;;;;12.30;5.63;;;;;;;;;;5027786;28;20425;-73
2021/03/25 09:26:42;;;;;;;9.50;5.13;;;;;;;;;;5021151;28;20465;-72
2021/03/25 09:29:11;;;;;;;9.10;5.33;;;;;;;;;;5022756;28;20449;-73
2021/03/25 09:31:57;;;;;;;10.97;6.13;;;;;;;;;;5025249;28;20458;-73
2021/03/25 09:34:23;;;;;;;17.53;5.90;;;;;;;;;;4994781;28;20474;-73
2021/03/25 09:36:52;;;;;;;11.07;5.40;;;;;;;;;;5024820;28;20745;-73
2021/03/25 09:39:24;;;;;;;8.73;5.13;;;;;;;;;;5026200;28;20450;-74
2021/03/25 09:41:50;;;;;;;18.70;6.40;;;;;;;;;;5024979;28;20448;-73
2021/03/25 09:44:19;;;;;;;8.47;5.27;;;;;;;;;;5023103;28;20572;-73
2021/03/25 09:46:45;;;;;;;8.57;4.90;;;;;;;;;;5022733;28;20819;-72
2021/03/25 09:49:20;;;;;;;9.23;5.50;;;;;;;;;;5023142;28;20453;-73
2021/03/25 09:52:11;;;;;;;9.83;5.90;;;;;;;;;;5022784;28;20466;-73
2021/03/25 09:54:37;;;;;;;6.90;4.67;;;;;;;;;;5021766;28;20998;-73
2021/03/25 09:57:22;;;;;;;9.80;5.70;;;;;;;;;;5023901;28;20903;-73
2021/03/25 09:59:48;;;;;;;9.77;5.27;;;;;;;;;;5028897;28;20989;-73
2021/03/25 10:02:34;;;;;;;10.83;5.50;;;;;;;;;;5025516;28;20408;-73
2021/03/25 10:05:17;;;;;;;6.90;4.63;;;;;;;;;;5026754;28;20986;-73
2021/03/25 10:07:43;;;;;;;13.53;6.27;;;;;;;;;;5025085;28;20450;-73
2021/03/25 10:10:21;;;;;;;15.43;7.83;;;;;;;;;;5027886;28;20450;-73
2021/03/25 10:12:50;;;;;;;14.37;7.20;;;;;;;;;;5024142;28;20458;-73
2021/03/25 10:15:40;;;;;;;10.03;6.50;;;;;;;;;;5030718;28;20430;-73
2021/03/25 10:18:08;;;;;;;13.50;7.40;;;;;;;;;;5026246;28;20419;-73
2021/03/25 10:20:55;;;;;;;14.77;7.27;;;;;;;;;;5022649;28;20517;-73
2021/03/25 10:23:29;;;;;;;12.87;7.10;;;;;;;;;;5026800;28;20425;-73
2021/03/25 10:26:10;;;;;;;14.60;7.60;;;;;;;;;;5026232;28;20428;-73
2021/03/25 10:28:39;;;;;;;11.30;7.10;;;;;;;;;;5029773;28;20439;-74
2021/03/25 10:31:06;;;;;;;16.93;6.67;;;;;;;;;;5028661;28;20426;-73
2021/03/25 10:33:33;;;;;;;13.40;6.10;;;;;;;;;;5027282;28;21013;-73
2021/03/25 10:36:07;;;;;;;11.03;6.97;;;;;;;;;;5028901;28;20434;-74
2021/03/25 10:38:53;;;;;;;13.27;6.60;;;;;;;;;;5024364;28;20433;-74
2021/03/25 10:41:21;;;;;;;13.17;7.33;;;;;;;;;;5028678;28;20410;-73
2021/03/25 10:43:51;;;;;;;10.23;6.40;;;;;;;;;;5029685;28;20506;-74
2021/03/25 10:46:29;;;;;;;12.13;6.50;;;;;;;;;;5030174;28;20832;-74
2021/03/25 10:48:59;;;;;;;9.17;6.10;;;;;;;;;;5028148;28;20447;-73
2021/03/25 10:51:26;;;;;;;17.70;6.47;;;;;;;;;;5025516;28;20406;-73
2021/03/25 10:53:54;;;;;;;13.60;7.17;;;;;;;;;;5023747;28;20934;-73
2021/03/25 10:56:37;;;;;;;10.30;6.07;;;;;;;;;;5027504;28;20427;-73
2021/03/25 10:59:17;;;;;;;12.30;6.60;;;;;;;;;;5024554;28;20439;-74
2021/03/25 11:01:50;;;;;;;10.33;6.03;;;;;;;;;;5021655;28;20539;-74
2021/03/25 11:04:26;;;;;;;13.30;6.60;;;;;;;;;;5023873;28;21021;-74
2021/03/25 11:06:53;;;;;;;16.13;7.53;;;;;;;;;;5025126;28;20466;-74
2021/03/25 11:09:20;;;;;;;14.70;6.90;;;;;;;;;;5024224;28;20447;-74
2021/03/25 11:11:46;;;;;;;12.70;7.00;;;;;;;;;;5025684;28;20454;-74
2021/03/25 11:14:47;;;;;;;11.33;6.30;;;;;;;;;;5023540;28;20476;-74
2021/03/25 11:17:21;;;;;;;10.80;5.57;;;;;;;;;;4978430;28;20422;-74
2021/03/25 11:19:54;;;;;;;13.03;5.70;;;;;;;;;;5022938;28;20459;-74
2021/03/25 11:22:22;;;;;;;10.20;6.37;;;;;;;;;;5028640;28;20425;-75
2021/03/25 11:24:48;;;;;;;11.00;5.90;;;;;;;;;;5035644;28;20795;-74
2021/03/25 11:27:16;;;;;;;7.60;5.23;;;;;;;;;;5032244;28;20423;-75
2021/03/25 11:29:42;;;;;;;8.53;4.67;;;;;;;;;;5035699;28;20496;-74
2021/03/25 11:32:29;;;;;;;9.03;4.57;;;;;;;;;;5036751;28;20494;-75
2021/03/25 11:34:55;;;;;;;7.37;5.00;;;;;;;;;;5021868;28;20435;-74
2021/03/25 11:37:24;;;;;;;7.70;5.03;;;;;;;;;;5036888;28;20583;-74
2021/03/25 11:39:57;;;;;;;16.10;6.00;;;;;;;;;;5036108;28;20465;-74
2021/03/25 11:42:26;;;;;;;7.30;5.13;;;;;;;;;;5036682;28;20462;-74
2021/03/25 11:44:52;;;;;;;11.23;6.23;;;;;;;;;;5031423;28;20449;-74
2021/03/25 11:47:33;;;;;;;8.30;5.13;;;;;;;;;;5035139;28;20416;-74
2021/03/25 11:49:59;;;;;;;8.70;4.87;;;;;;;;;;5042577;28;20798;-73
2021/03/25 11:52:25;;;;;;;7.00;4.60;;;;;;;;;;5046279;28;20455;-73
2021/03/25 11:54:59;;;;;;;12.10;5.73;;;;;;;;;;5039626;28;20427;-74
2021/03/25 11:57:28;;;;;;;7.33;4.50;;;;;;;;;;5031042;28;20416;-74
2021/03/25 12:00:14;;;;;;;13.00;5.30;;;;;;;;;;5033810;28;21585;-73
2021/03/25 12:02:41;;;;;;;9.70;5.90;;;;;;;;;;5043089;28;20441;-73
2021/03/25 12:05:30;;;;;;;7.30;4.70;;;;;;;;;;5031007;28;20520;-73
2021/03/25 12:08:07;;;;;;;6.60;4.87;;;;;;;;;;5029567;28;20978;-73
2021/03/25 12:10:34;;;;;;;8.37;4.13;;;;;;;;;;5034446;28;20419;-73
2021/03/25 12:13:00;;;;;;;6.00;3.40;;;;;;;;;;5028162;28;20491;-72
2021/03/25 12:15:26;;;;;;;7.43;4.93;;;;;;;;;;5034910;28;20791;-73
2021/03/25 12:18:05;;;;;;;7.33;4.60;;;;;;;;;;5040459;28;20423;-73
2021/03/25 12:20:31;;;;;;;7.67;4.13;;;;;;;;;;5037242;28;20466;-75
2021/03/25 12:23:03;;;;;;;7.63;3.90;;;;;;;;;;5038945;28;20439;-73
2021/03/25 12:25:30;;;;;;;6.97;4.20;;;;;;;;;;5034711;28;20939;-74
2021/03/25 12:27:56;;;;;;;6.33;3.70;;;;;;;;;;5036354;28;20494;-74
2021/03/25 12:30:22;;;;;;;9.03;5.00;;;;;;;;;;5030085;28;20461;-74
2021/03/25 12:33:01;;;;;;;10.13;4.97;;;;;;;;;;5038814;28;20494;-74
2021/03/25 12:35:27;;;;;;;8.67;4.70;;;;;;;;;;5030754;28;20465;-74
2021/03/25 12:37:53;;;;;;;9.20;5.53;;;;;;;;;;5026743;28;20422;-73
2021/03/25 12:40:21;;;;;;;6.20;4.23;;;;;;;;;;5026349;28;20442;-73
2021/03/25 12:42:47;;;;;;;6.27;4.17;;;;;;;;;;5028961;28;20433;-74
2021/03/25 12:45:34;;;;;;;8.37;5.17;;;;;;;;;;5031636;28;20431;-73
2021/03/25 12:48:00;;;;;;;7.73;4.67;;;;;;;;;;5037489;28;20425;-73
2021/03/25 12:50:26;;;;;;;8.67;4.20;;;;;;;;;;5037599;28;20516;-74
2021/03/25 12:52:52;;;;;;;8.10;4.10;;;;;;;;;;5032971;28;20488;-73
2021/03/25 12:55:19;;;;;;;6.83;3.73;;;;;;;;;;5035320;28;20477;-74
2021/03/25 12:57:47;;;;;;;6.90;3.17;;;;;;;;;;5036295;28;20520;-74
2021/03/25 13:00:22;;;;;;;5.70;3.57;;;;;;;;;;5024147;28;20438;-74
2021/03/25 13:02:48;;;;;;;6.83;4.00;;;;;;;;;;5039210;28;20430;-74
2021/03/25 13:05:15;;;;;;;7.83;4.80;;;;;;;;;;5031870;28;20427;-73
2021/03/25 13:07:41;;;;;;;5.73;3.97;;;;;;;;;;5034168;28;20484;-74
2021/03/25 13:10:07;;;;;;;10.73;4.57;;;;;;;;;;5029413;28;20443;-73
2021/03/25 13:12:33;;;;;;;5.90;3.80;;;;;;;;;;5032001;28;20458;-73
2021/03/25 13:14:59;;;;;;;6.23;3.70;;;;;;;;;;5031066;28;20427;-73
2021/03/25 13:17:25;;;;;;;8.13;4.53;;;;;;;;;;5029271;28;20428;-75
2021/03/25 13:19:51;;;;;;;5.43;3.20;;;;;;;;;;5033972;28;20879;-76
2021/03/25 13:22:17;;;;;;;7.63;4.40;;;;;;;;;;5033069;28;20439;-74
2021/03/25 13:24:43;;;;;;;7.70;4.43;;;;;;;;;;5033387;28;20419;-75
2021/03/25 13:27:09;;;;;;;8.50;4.90;;;;;;;;;;5032182;28;20425;-74
2021/03/25 13:29:35;;;;;;;15.43;4.70;;;;;;;;;;5032717;28;20796;-75
2021/03/25 13:32:01;;;;;;;11.77;4.70;;;;;;;;;;5025294;28;20457;-74
2021/03/25 13:34:27;;;;;;;8.00;4.03;;;;;;;;;;5030353;28;20430;-74
2021/03/25 13:36:56;;;;;;;8.20;4.30;;;;;;;;;;5032591;28;20454;-74
2021/03/25 13:39:22;;;;;;;6.93;3.80;;;;;;;;;;5036116;28;20434;-74
2021/03/25 13:41:48;;;;;;;7.50;4.00;;;;;;;;;;5039518;28;20494;-74
2021/03/25 13:44:14;;;;;;;16.30;3.87;;;;;;;;;;5033991;28;20922;-73
2021/03/25 13:46:40;;;;;;;6.00;2.93;;;;;;;;;;5032769;28;20567;-74
2021/03/25 13:49:06;;;;;;;7.60;4.07;;;;;;;;;;5023852;28;20443;-74
2021/03/25 13:51:32;;;;;;;4.73;3.10;;;;;;;;;;5033450;28;20462;-74
2021/03/25 13:53:59;;;;;;;6.67;4.20;;;;;;;;;;5032019;28;20504;-74
2021/03/25 13:56:25;;;;;;;5.77;3.40;;;;;;;;;;5035859;28;20433;-74
2021/03/25 13:58:51;;;;;;;8.53;4.30;;;;;;;;;;5033464;28;20437;-74
2021/03/25 14:01:17;;;;;;;10.90;3.70;;;;;;;;;;5032101;28;20459;-74
2021/03/25 14:03:43;;;;;;;7.10;3.27;;;;;;;;;;5033936;28;20480;-74
2021/03/25 14:06:09;;;;;;;6.60;3.13;;;;;;;;;;5027118;28;20502;-74
2021/03/25 14:08:35;;;;;;;5.20;3.00;;;;;;;;;;5034511;28;20442;-74
2021/03/25 14:11:01;;;;;;;6.90;3.87;;;;;;;;;;5030680;28;20433;-74
2021/03/25 14:13:27;;;;;;;7.97;3.50;;;;;;;;;;5034656;28;20453;-74
2021/03/25 14:15:54;;;;;;;4.03;3.07;;;;;;;;;;5035074;28;20414;-74
2021/03/25 14:18:21;;;;;;;5.50;3.27;;;;;;;;;;5036358;28;20490;-74
2021/03/25 14:20:47;;;;;;;6.60;3.10;;;;;;;;;;5039396;28;20431;-74
2021/03/25 14:23:14;;;;;;;4.90;3.53;;;;;;;;;;5047213;28;20960;-74
2021/03/25 14:25:43;;;;;;;6.00;3.50;;;;;;;;;;5028059;28;20427;-75
2021/03/25 14:28:10;;;;;;;6.43;3.10;;;;;;;;;;5030712;28;20449;-74
2021/03/25 14:30:38;;;;;;;5.70;3.27;;;;;;;;;;5031508;28;20462;-74
2021/03/25 14:33:05;;;;;;;9.50;4.87;;;;;;;;;;5026113;28;20977;-74
2021/03/25 14:35:33;;;;;;;6.70;3.70;;;;;;;;;;5031478;28;20557;-75
2021/03/25 14:38:00;;;;;;;5.43;3.23;;;;;;;;;;5022934;28;21358;-75
2021/03/25 14:40:26;;;;;;;6.20;3.33;;;;;;;;;;5023415;28;20448;-75
2021/03/25 14:42:52;;;;;;;6.73;3.70;;;;;;;;;;5032480;28;20505;-74
2021/03/25 14:45:21;;;;;;;12.00;4.23;;;;;;;;;;5023851;28;20427;-74
2021/03/25 14:47:47;;;;;;;6.07;3.50;;;;;;;;;;5024965;28;20437;-74
2021/03/25 14:50:14;;;;;;;7.53;3.80;;;;;;;;;;5026408;28;20443;-75
2021/03/25 14:52:40;;;;;;;7.10;4.07;;;;;;;;;;5026332;28;20455;-75
2021/03/25 14:55:07;;;;;;;8.90;3.90;;;;;;;;;;5034069;28;20429;-75
2021/03/25 14:57:33;;;;;;;10.40;4.10;;;;;;;;;;5029822;28;20522;-75
2021/03/25 14:59:59;;;;;;;12.80;4.77;;;;;;;;;;5024249;28;20431;-74
2021/03/25 15:02:25;;;;;;;7.00;4.10;;;;;;;;;;5031735;28;20426;-74